Idaho Falls Regional Airport
KIDA : rendu visible

Aérodrome :











RETROUVEZ-NOUS SUR...

 
LOGIN :

S'inscrire | Disclaimer

   EN    FR    IT 

 









Légende :    VFR   VFR Marginal   IFR   IFR Intensif   IFR Très Intensif
Visi : 
Plafond : 
>= 8 km
>= 3000ft
5 à 8 km
1000 à 3000 ft
1500m à 5 km
500 à 1000 ft
800 à 1500m
200 à 500 ft
< 800m
< 200 ft
Symboles :   Orages  Brouillard  Fortes neiges  Fortes précipitations  Vent > 20 kt






- Altitude de l'aérodrome : 4744 ft
- Code IATA : IDA


KIDA - Idaho Falls Regional

DERNIER METAR :
  • 250453Z AUTO 14006KT 10SM FEW080 10/03 A3015 RMK AO2 SLP200 T01000033

METARs EXPIRÉS :
  • 250353Z AUTO 18003KT 10SM CLR 11/03 A3015 RMK AO2 SLP198 T01060033
  • 250253Z AUTO 18005KT 10SM CLR 13/02 A3014 RMK AO2 SLP195 T01330022 53003

TAF KIDA
Valide du 25 à 06h jusqu'au 26 à 06h UTC


250520Z 2506/2606 VRB06KT P6SM FEW040 FEW200
FM251800 21011KT P6SM FEW060
FM260300 20007KT P6SM OVC200
FIR KZLC / Amérique du Nord



MET'MAP, la Météo Aéronautique d'un coup d'oeil ! - Copyright ORBIFLY Décembre 2007 - Disclaimer

ORBIFLY MET'MAP TEAM :

Programmation & Développement : Alexandra Zaïnal
Sur une idée originale de : Baudouin d'Aumeries
Assistance à la programmation : Marc-Olivier Méhu
Soutien technique & logistique : Manuel Goepfert

Contact : metmap@orbifly.com




SOURCES & CREDITS :

   NOAA       Earth
Advisory